Racecast

Ben Kessler

Temperance Bedford (MI) · 12 · SECMI D1MONROE · Compare head to head

Athlete rating 107.8 2018 TF season
Best race 111.0 XC
Races 36
Seasons 3 2016 — 2018

RankedNation #73952·MI #3097·MI D1 #1758·SEC #187·Team #24 ?

Speed rating — all races

Cross Country

XC speed rating

2017 XC 107.3

Temperance Bedford (MI) · Grade 12

Date Meet Event Result Place Rating Difficulty PR/SR Flags
2017-10-28 Lake Erie Metro Park OFFICIAL 5000m 18:59.1 40th · 6th on team 109.2 +0.007 ★CR CSR
2017-10-19 Hudson Mills Metropark - OFFICIAL 5000m 18:38.8 68th · 5th on team 110.7 -0.006 ★PR ★CR SR CSR
2017-10-10 Indian Creek OFFICIAL 5000m 18:43 7th · 6th on team 111.0 +0.004 PR ★CR ★R SR CSR RSR
2017-10-07 Portage West MS 5000m 19:37.9 208th · 7th on team 106.0 -0.003 ★CR CSR
2017-09-30 Lake Erie Metro Park OFFICIAL 5000m 19:27.7 63rd · 12th on team 106.0 +0.007 CR CSR
2017-09-22 Ella Sharp Park OFFICIAL 5000m 19:34.7 19th · 11th on team 107.6 -0.001 ★CR R CSR RSR
2017-09-12 Hudson Mills Metropark - OFFICIAL 5000m 19:11.2 64th · 3rd on team 107.0 -0.006 PR CR R SR CSR RSR
2017-09-09 Hedges Boyer Park 5000m 19:16.9 144th · 7th on team 106.8 -0.003 PR ★CR R SR CSR RSR
2017-09-01 Oakland University 4000m 15:16.7 23rd · 3rd on team 105.6 +0.013 ★PR ★CR R SR CSR RSR
2017-08-26 Walsh Park 5000m 19:59.6 58th · 16th on team 103.6 +0.012 PR ★CR R SR CSR RSR

2016 XC 94.0

Temperance Bedford (MI) · Grade 11

Date Meet Event Result Place Rating Difficulty PR/SR Flags
2016-10-29 Lake Erie Metro Park OFFICIAL 5000m 21:56.5 138th · 20th on team 95.0 +0.007 CR CSR
2016-10-20 Hudson Mills Metropark - OFFICIAL 5000m 21:24 170th · 18th on team 95.6 -0.006 CR CSR
2016-10-15 Hudson Mills Metropark - OFFICIAL 5000m 21:38.2 141st · 16th on team 95.5 -0.006 CR CSR
2016-10-08 Portage West MS 5000m 21:23 491st · 17th on team 96.3 -0.003 CR CSR
2016-10-01 Pearson's Metro Park 5000m 21:13.9 103rd · 18th on team 97.1 +0.001 PR ★CR R SR CSR RSR
2016-09-27 Pioneer HS 5000m 22:00.6 110th · 13th on team 96.4 +0.018 ★CR R CSR RSR
2016-09-23 Ella Sharp Park OFFICIAL 5000m 21:36 140th · 17th on team 96.0 -0.001 PR CR R SR CSR RSR
2016-09-17 Springfield Oaks County Park OFFICIAL 5000m 24:46 199th · 17th on team 87.3 +0.019 ★CR CSR
2016-09-13 Heritage Park (Adrian) OFFICIAL 5000m 22:50.9 155th · 17th on team 93.8 +0.035 ★CR CSR
2016-09-10 Hedges Boyer Park 5000m 22:10.4 449th · 11th on team 93.3 -0.003 PR CR SR CSR
2016-09-02 Oakland University 4000m 17:21.6 109th · 13th on team 94.1 +0.013 PR CR R SR CSR RSR
2016-08-25 Heritage Park (Adrian) OFFICIAL 5000m 24:37.1 48th · 17th on team 87.1 +0.035 PR CR SR CSR RSR

Track & Field

TF speed rating

2018 TF 106.8

Temperance Bedford (MI) · Grade 12

Date Meet Event Result Place Rating Difficulty PR/SR Flags
2018-05-17 Eagle Boys Invite 1600m 5:24.07 55th · 4th on team 107.1 -0.021
2018-05-07 SEC Red: Huron @ Bedford 1600m 5:12 6th · 6th on team 110.6 -0.026 ★PR SR RSR
2018-05-01 SEC Red: Bedford & Skyline @ Monroe 3200m 11:52.9 14th · 3rd on team 105.8 -0.022 ★PR SR
2018-04-24 Saline/Bedford Dual 1600m 5:20.02 20th · 8th on team 106.8 -0.033 PR SR RSR
2018-04-10 SEC Red Division - Pioneer @ Bedford 3200m 11:56 4th · 4th on team 103.7 -0.026 PR SR RSR

2017 TF 97.3

Temperance Bedford (MI) · Grade 11

Date Meet Event Result Place Rating Difficulty PR/SR Flags
2017-05-17 Eagle Boys Invite 800m 2:43.01 74th · 6th on team 94.7 -0.021
2017-05-17 Eagle Boys Invite 1600m 5:39.59 98th · 5th on team 102.5 -0.021 PR R SR RSR
2017-04-25 SEC Red: Bedford @ Skyline 800m 2:41.03 18th · 12th on team 95.1 -0.021 ★PR SR
2017-04-25 SEC Red: Bedford @ Skyline 1600m 5:50.66 18th · 9th on team 98.3 -0.021 PR R SR RSR
2017-03-28 SEC Red: Bedford @ Pioneer 1600m 6:00.41 22nd · 8th on team 96.1 -0.017 PR SR RSR

2016 TF 80.4

Temperance Bedford (MI) · Grade 10

Date Meet Event Result Place Rating Difficulty PR/SR Flags
2016-05-18 Eagle Boys Invitational 1600m 6:06.97 139th · 14th on team 93.7 -0.021 PR R SR RSR
2016-05-03 SEC Tri: Huron/Skyline @ Bedford 800m 3:17.3 22nd · 12th on team 76.7 -0.026 PR SR
2016-04-26 Bedford @ Monroe 800m 3:27.5 19th · 11th on team 73.7 -0.022
2016-04-19 Saline @ Bedford 800m 3:17.32 37th · 11th on team 77.4 -0.026 PR R SR RSR